Time;durP1;ratioP1;P1;durP2;ratioP2;P2;SDS_P1;SDS_P2;PMS_P1;PMS_P2;Temp;Humidity;BMP_temperature;BMP_pressure;BME280_temperature;BME280_humidity;BME280_pressure;Samples;Min_cycle;Max_cycle;Signal;HPM_P1;HPM_P2
2023/09/10 00:01:12;;;;;;;23.75;21.20;;;17.70;99.90;;;;;;5084741;28;20048;-57
2023/09/10 00:03:38;;;;;;;25.30;21.15;;;17.70;99.90;;;;;;5082071;28;20130;-57
2023/09/10 00:06:05;;;;;;;27.05;22.10;;;17.70;99.90;;;;;;5084632;28;20071;-58
2023/09/10 00:08:32;;;;;;;23.33;20.80;;;17.70;99.90;;;;;;5080659;28;20157;-57
2023/09/10 00:10:58;;;;;;;21.08;17.55;;;17.70;99.90;;;;;;5084205;28;20145;-58
2023/09/10 00:13:27;;;;;;;20.45;18.27;;;17.60;99.90;;;;;;5082800;28;20052;-58
2023/09/10 00:15:54;;;;;;;24.00;18.15;;;17.60;99.90;;;;;;5082937;28;20079;-57
2023/09/10 00:18:21;;;;;;;15.80;14.15;;;17.60;99.90;;;;;;5083517;28;20060;-58
2023/09/10 00:20:49;;;;;;;16.67;14.75;;;17.80;99.90;;;;;;5082258;28;20048;-57
2023/09/10 00:23:15;;;;;;;19.52;16.60;;;17.60;99.90;;;;;;5083291;28;20136;-57
2023/09/10 00:25:41;;;;;;;18.20;16.23;;;17.50;99.90;;;;;;5080834;28;20068;-57
2023/09/10 00:28:07;;;;;;;16.08;14.32;;;17.50;99.90;;;;;;5083097;28;20058;-57
2023/09/10 00:30:32;;;;;;;17.67;15.77;;;17.40;99.90;;;;;;5081192;28;20391;-57
2023/09/10 00:32:58;;;;;;;19.45;17.58;;;17.40;99.90;;;;;;5083801;28;20056;-58
2023/09/10 00:35:24;;;;;;;23.20;19.50;;;17.30;99.90;;;;;;5064425;28;20865;-57
2023/09/10 00:37:50;;;;;;;24.70;18.02;;;17.30;99.90;;;;;;5082302;28;20059;-57
2023/09/10 00:40:15;;;;;;;19.67;16.92;;;17.30;99.90;;;;;;5082742;28;20116;-57
2023/09/10 00:42:41;;;;;;;20.45;18.25;;;17.30;99.90;;;;;;5062073;28;20064;-57
2023/09/10 00:45:09;;;;;;;21.80;17.20;;;17.30;99.90;;;;;;5083050;28;20052;-57
2023/09/10 00:47:37;;;;;;;22.33;18.63;;;17.30;99.90;;;;;;5081372;28;20091;-57
2023/09/10 00:50:05;;;;;;;23.98;20.50;;;17.20;99.90;;;;;;5083767;28;20059;-57
2023/09/10 00:52:32;;;;;;;24.98;21.48;;;17.20;99.90;;;;;;5080300;28;20060;-58
2023/09/10 00:54:58;;;;;;;20.15;18.02;;;17.20;99.90;;;;;;5065003;28;20055;-58
2023/09/10 00:57:25;;;;;;;24.08;20.02;;;17.20;99.90;;;;;;5081810;28;20161;-57
2023/09/10 00:59:51;;;;;;;22.60;20.00;;;17.20;99.90;;;;;;5082164;28;20048;-58
2023/09/10 01:02:22;;;;;;;23.40;20.67;;;17.20;99.90;;;;;;5082351;28;20060;-58
2023/09/10 01:04:47;;;;;;;22.83;19.40;;;17.20;99.90;;;;;;5080720;28;20067;-57
2023/09/10 01:07:13;;;;;;;18.92;16.63;;;17.20;99.90;;;;;;5082936;28;20060;-57
2023/09/10 01:09:40;;;;;;;12.07;10.88;;;17.10;99.90;;;;;;5081007;28;20070;-57
2023/09/10 01:12:20;;;;;;;15.40;13.82;;;17.10;99.90;;;;;;5082612;28;20549;-57
2023/09/10 01:15:11;;;;;;;12.68;11.30;;;17.10;99.90;;;;;;5079880;28;20557;-57
2023/09/10 01:18:04;;;;;;;15.30;13.57;;;17.00;99.90;;;;;;5063961;28;20064;-57
2023/09/10 01:20:48;;;;;;;21.23;18.98;;;17.00;99.90;;;;;;5079908;28;20060;-57
2023/09/10 01:25:42;;;;;;;21.98;19.38;;;17.00;99.90;;;;;;5080755;28;20788;-58
2023/09/10 01:28:08;;;;;;;21.73;18.38;;;16.90;99.90;;;;;;5064441;28;20075;-57
2023/09/10 01:30:34;;;;;;;23.02;20.60;;;16.90;99.90;;;;;;5080219;28;20489;-56
2023/09/10 01:33:20;;;;;;;24.92;20.33;;;16.90;99.90;;;;;;5044670;28;1099325;-57
2023/09/10 01:35:56;;;;;;;27.40;21.73;;;16.90;99.90;;;;;;5079790;28;20056;-57
2023/09/10 01:38:39;;;;;;;19.95;17.85;;;16.90;99.90;;;;;;5081164;28;20086;-56
2023/09/10 01:41:11;;;;;;;18.65;16.65;;;16.80;99.90;;;;;;5081869;28;20143;-57
2023/09/10 01:43:37;;;;;;;19.98;17.85;;;16.80;99.90;;;;;;5079775;28;20150;-57
2023/09/10 01:46:05;;;;;;;21.15;17.30;;;16.70;99.90;;;;;;5082806;28;20131;-57
2023/09/10 01:48:31;;;;;;;16.88;14.70;;;16.80;99.90;;;;;;5078873;28;20066;-56
2023/09/10 01:50:57;;;;;;;19.20;16.25;;;16.70;99.90;;;;;;5063242;28;20507;-57
2023/09/10 01:53:23;;;;;;;24.20;21.15;;;16.70;99.90;;;;;;5062339;28;20137;-57
2023/09/10 01:55:48;;;;;;;20.85;18.17;;;16.70;99.90;;;;;;5081012;28;20081;-57
2023/09/10 01:58:15;;;;;;;18.83;16.42;;;16.70;99.90;;;;;;5062430;28;20493;-57
2023/09/10 02:00:41;;;;;;;20.30;17.15;;;16.70;99.90;;;;;;5079864;28;20048;-57
2023/09/10 02:03:07;;;;;;;24.17;20.25;;;16.70;99.90;;;;;;5063518;28;20044;-57
2023/09/10 02:05:33;;;;;;;21.05;18.85;;;16.60;99.90;;;;;;5078856;28;20063;-57
2023/09/10 02:07:59;;;;;;;21.73;17.77;;;16.60;99.90;;;;;;5082683;28;20517;-58
2023/09/10 02:10:25;;;;;;;21.02;18.00;;;16.60;99.90;;;;;;5079574;28;20067;-57
2023/09/10 02:12:51;;;;;;;21.55;19.15;;;16.60;99.90;;;;;;5081006;28;20475;-58
2023/09/10 02:15:20;;;;;;;24.33;21.33;;;16.60;99.90;;;;;;5081897;28;20068;-58
2023/09/10 02:17:46;;;;;;;21.77;19.42;;;16.60;99.90;;;;;;5053894;28;20079;-58
2023/09/10 02:20:12;;;;;;;25.83;22.05;;;16.60;99.90;;;;;;5080531;28;20130;-58
2023/09/10 02:22:39;;;;;;;27.00;22.55;;;16.60;99.90;;;;;;5078938;28;20155;-58
2023/09/10 02:25:05;;;;;;;25.25;22.48;;;16.60;99.90;;;;;;5082137;28;20066;-60
2023/09/10 02:27:31;;;;;;;25.65;21.20;;;16.60;99.90;;;;;;5062508;28;20076;-57
2023/09/10 02:29:58;;;;;;;25.05;20.55;;;16.50;99.90;;;;;;5064672;28;20083;-58
2023/09/10 02:32:24;;;;;;;26.10;22.60;;;16.50;99.90;;;;;;5061407;28;20070;-58
2023/09/10 02:34:52;;;;;;;25.13;21.50;;;16.50;99.90;;;;;;5080863;28;20058;-57
2023/09/10 02:37:22;;;;;;;21.95;19.70;;;16.50;99.90;;;;;;5081738;28;20105;-57
2023/09/10 02:39:48;;;;;;;18.77;16.73;;;16.50;99.90;;;;;;5080300;28;20103;-57
2023/09/10 02:42:13;;;;;;;19.15;15.20;;;16.40;99.90;;;;;;5081104;28;20138;-57
2023/09/10 02:44:39;;;;;;;18.58;14.43;;;16.40;99.90;;;;;;5078714;28;20068;-58
2023/09/10 02:47:05;;;;;;;16.10;14.38;;;16.30;99.90;;;;;;5081287;28;20044;-57
2023/09/10 02:49:32;;;;;;;14.85;13.35;;;16.30;99.90;;;;;;5078750;28;20070;-58
2023/09/10 02:51:57;;;;;;;15.35;13.15;;;16.30;99.90;;;;;;5067990;28;20092;-58
2023/09/10 02:54:23;;;;;;;16.17;14.52;;;16.30;99.90;;;;;;5044213;28;20137;-57
2023/09/10 02:56:50;;;;;;;19.20;15.80;;;16.20;99.90;;;;;;5065155;28;20056;-57
2023/09/10 02:59:20;;;;;;;22.58;19.02;;;16.20;99.90;;;;;;5075500;28;20125;-57
2023/09/10 03:01:46;;;;;;;25.73;22.58;;;16.20;99.90;;;;;;5058725;28;20060;-56
2023/09/10 03:04:16;;;;;;;22.67;19.65;;;16.20;99.90;;;;;;5076295;28;20390;-57
2023/09/10 03:06:43;;;;;;;21.00;18.75;;;16.10;99.90;;;;;;5078907;28;20051;-57
2023/09/10 03:09:09;;;;;;;22.50;20.10;;;16.10;99.90;;;;;;5081472;28;20063;-57
2023/09/10 03:11:37;;;;;;;27.55;23.10;;;16.10;99.90;;;;;;5073907;28;20060;-56
2023/09/10 03:14:03;;;;;;;26.83;21.67;;;16.10;99.90;;;;;;5048621;28;20048;-57
2023/09/10 03:16:29;;;;;;;26.75;22.45;;;16.10;99.90;;;;;;5080675;28;20048;-56
2023/09/10 03:18:54;;;;;;;24.90;22.23;;;16.00;99.90;;;;;;5069560;28;20056;-57
2023/09/10 03:21:21;;;;;;;26.67;23.60;;;15.90;99.90;;;;;;5078159;28;20406;-57
2023/09/10 03:23:47;;;;;;;25.00;22.33;;;15.90;99.90;;;;;;5078831;28;20559;-56
2023/09/10 03:26:13;;;;;;;27.60;24.55;;;15.80;99.90;;;;;;5066483;28;20056;-56
2023/09/10 03:28:40;;;;;;;24.83;22.33;;;15.90;99.90;;;;;;5073705;28;20064;-56
2023/09/10 03:31:06;;;;;;;25.92;23.23;;;15.80;99.90;;;;;;5084205;28;20060;-57
2023/09/10 03:33:32;;;;;;;27.92;22.70;;;15.80;99.90;;;;;;5072318;28;20056;-56
2023/09/10 03:35:58;;;;;;;21.00;18.75;;;15.90;99.90;;;;;;5072301;28;20655;-57
2023/09/10 03:38:24;;;;;;;18.65;16.60;;;15.80;99.90;;;;;;5082925;28;20090;-57
2023/09/10 03:40:49;;;;;;;19.45;17.38;;;15.80;99.90;;;;;;5082913;28;20060;-57
2023/09/10 03:43:16;;;;;;;17.65;15.75;;;15.80;99.90;;;;;;5065203;28;20113;-57
2023/09/10 03:45:42;;;;;;;20.25;17.95;;;15.80;99.90;;;;;;5082002;28;20502;-57
2023/09/10 03:48:08;;;;;;;14.60;13.02;;;15.80;99.90;;;;;;5084708;28;20048;-57
2023/09/10 03:50:35;;;;;;;12.18;11.00;;;15.80;99.90;;;;;;5059777;28;20068;-57
2023/09/10 03:53:00;;;;;;;13.57;12.18;;;15.80;99.90;;;;;;5082288;28;20063;-57
2023/09/10 03:55:26;;;;;;;17.13;14.98;;;15.70;99.90;;;;;;5057611;28;20056;-57
2023/09/10 03:57:52;;;;;;;17.10;15.30;;;15.80;99.90;;;;;;5069808;28;20056;-57
2023/09/10 04:00:21;;;;;;;17.25;15.55;;;15.80;99.90;;;;;;5084421;28;20063;-58
2023/09/10 04:02:47;;;;;;;21.40;19.05;;;15.70;99.90;;;;;;5081498;28;20056;-57
2023/09/10 04:05:13;;;;;;;25.35;20.25;;;15.80;99.90;;;;;;5084497;28;20048;-57
2023/09/10 04:07:39;;;;;;;25.98;23.17;;;15.70;99.90;;;;;;5081800;28;20071;-58
2023/09/10 04:10:08;;;;;;;23.42;21.10;;;15.70;99.90;;;;;;5082519;28;20052;-57
2023/09/10 04:12:35;;;;;;;28.48;24.55;;;15.70;99.90;;;;;;5070420;28;20499;-59
2023/09/10 04:15:00;;;;;;;28.27;24.60;;;15.70;99.90;;;;;;5072517;28;20075;-57
2023/09/10 04:17:30;;;;;;;28.67;25.65;;;15.70;99.90;;;;;;5082049;28;20095;-58
2023/09/10 04:19:57;;;;;;;30.30;27.10;;;15.70;99.90;;;;;;5083323;28;20056;-58
2023/09/10 04:22:23;;;;;;;31.55;27.77;;;15.70;99.90;;;;;;5082666;28;20505;-59
2023/09/10 04:24:49;;;;;;;28.17;25.05;;;15.60;99.90;;;;;;5060836;28;20052;-57
2023/09/10 04:27:15;;;;;;;31.25;26.33;;;15.60;99.90;;;;;;5076903;28;20106;-58
2023/09/10 04:29:41;;;;;;;26.08;23.38;;;15.60;99.90;;;;;;5080828;28;20395;-58
2023/09/10 04:32:07;;;;;;;24.60;22.08;;;16.10;99.90;;;;;;5081172;28;20064;-58
2023/09/10 04:34:32;;;;;;;26.13;23.33;;;15.60;99.90;;;;;;5063266;28;20052;-58
2023/09/10 04:36:58;;;;;;;26.30;23.60;;;15.60;99.90;;;;;;5083131;28;20060;-58
2023/09/10 04:39:24;;;;;;;26.92;23.80;;;15.60;99.90;;;;;;5082177;28;20484;-57
2023/09/10 04:41:50;;;;;;;25.25;22.63;;;15.60;99.90;;;;;;5083521;28;20465;-58
2023/09/10 04:44:16;;;;;;;24.20;21.70;;;15.60;99.90;;;;;;5083875;28;20063;-58
2023/09/10 04:46:41;;;;;;;24.13;21.38;;;15.50;99.90;;;;;;5081101;28;20113;-58
2023/09/10 04:49:07;;;;;;;25.85;22.98;;;15.60;99.90;;;;;;5078054;28;20052;-58
2023/09/10 04:51:33;;;;;;;26.15;22.50;;;15.60;99.90;;;;;;5058772;28;20088;-58
2023/09/10 04:53:59;;;;;;;24.17;21.58;;;15.60;99.90;;;;;;5071118;28;20060;-58
2023/09/10 04:56:24;;;;;;;21.85;18.25;;;15.50;99.90;;;;;;5059002;28;20053;-57
2023/09/10 04:58:50;;;;;;;16.90;15.13;;;15.60;99.90;;;;;;5077573;28;20056;-57
2023/09/10 05:01:16;;;;;;;18.30;16.42;;;15.50;99.90;;;;;;5082741;28;20513;-57
2023/09/10 05:03:42;;;;;;;18.48;16.30;;;15.50;99.90;;;;;;5076836;28;20056;-56
2023/09/10 05:06:09;;;;;;;18.55;16.08;;;15.50;99.90;;;;;;5061317;28;20501;-57
2023/09/10 05:08:35;;;;;;;20.15;18.02;;;15.50;99.90;;;;;;5080501;28;20052;-57
2023/09/10 05:11:01;;;;;;;18.35;16.45;;;15.90;99.90;;;;;;5079007;28;20414;-57
2023/09/10 05:13:27;;;;;;;16.92;15.20;;;15.60;99.90;;;;;;5064198;28;20083;-57
2023/09/10 05:15:54;;;;;;;17.00;15.23;;;15.60;99.90;;;;;;5077461;28;20052;-58
2023/09/10 05:18:22;;;;;;;17.48;15.52;;;15.60;99.90;;;;;;5054240;28;20080;-57
2023/09/10 05:20:48;;;;;;;22.17;17.83;;;15.60;99.90;;;;;;5063180;28;20596;-57
2023/09/10 05:23:14;;;;;;;25.77;20.83;;;15.60;99.90;;;;;;5064082;28;20056;-57
2023/09/10 05:25:39;;;;;;;25.38;21.80;;;15.70;99.90;;;;;;5059323;28;20056;-57
2023/09/10 05:28:05;;;;;;;26.33;21.55;;;15.60;99.90;;;;;;5051548;28;20057;-57
2023/09/10 05:30:31;;;;;;;22.48;20.08;;;15.70;99.90;;;;;;5056370;28;20109;-57
2023/09/10 05:32:57;;;;;;;20.90;18.65;;;15.70;99.90;;;;;;5073415;28;20062;-57
2023/09/10 05:35:24;;;;;;;19.58;17.52;;;15.80;99.90;;;;;;5058734;28;20044;-57
2023/09/10 05:37:50;;;;;;;20.02;17.35;;;15.80;99.90;;;;;;5056991;28;20079;-58
2023/09/10 05:40:15;;;;;;;20.55;17.95;;;15.90;99.90;;;;;;5073260;28;20659;-58
2023/09/10 05:42:42;;;;;;;23.25;20.75;;;15.90;99.90;;;;;;5076650;28;20068;-58
2023/09/10 05:45:08;;;;;;;23.92;21.45;;;16.00;99.90;;;;;;5060118;28;20068;-58
2023/09/10 05:47:33;;;;;;;27.63;24.08;;;16.10;99.90;;;;;;5054567;28;20056;-58
2023/09/10 05:50:00;;;;;;;27.50;24.75;;;16.10;99.90;;;;;;5052211;28;20080;-57
2023/09/10 05:52:26;;;;;;;28.25;25.17;;;16.20;99.90;;;;;;5021541;28;1137608;-57
2023/09/10 05:54:52;;;;;;;25.30;22.70;;;16.30;99.90;;;;;;5065563;28;20053;-58
2023/09/10 05:57:20;;;;;;;27.10;24.08;;;16.30;99.90;;;;;;5053150;28;20064;-57
2023/09/10 05:59:46;;;;;;;25.27;22.58;;;16.50;99.90;;;;;;5079425;28;20097;-57
2023/09/10 06:02:12;;;;;;;24.17;21.67;;;16.60;99.90;;;;;;5081809;28;20052;-57
2023/09/10 06:04:37;;;;;;;26.58;23.75;;;16.60;99.90;;;;;;5059930;28;20056;-57
2023/09/10 06:07:04;;;;;;;24.67;22.17;;;16.80;99.90;;;;;;5081741;28;20576;-57
2023/09/10 06:09:30;;;;;;;24.50;21.95;;;16.90;99.90;;;;;;5062677;28;20066;-57
2023/09/10 06:11:57;;;;;;;25.67;22.88;;;17.00;99.90;;;;;;5068997;28;20090;-57
2023/09/10 06:14:23;;;;;;;27.02;24.13;;;17.10;99.90;;;;;;5079707;28;20079;-56
2023/09/10 06:16:49;;;;;;;26.88;24.02;;;17.30;99.90;;;;;;5055827;28;20824;-57
2023/09/10 06:19:14;;;;;;;27.17;24.48;;;17.40;99.90;;;;;;5054655;28;20096;-59
2023/09/10 06:21:41;;;;;;;29.08;26.05;;;17.50;99.90;;;;;;5064826;28;20060;-60
2023/09/10 06:24:06;;;;;;;28.40;25.40;;;17.70;99.90;;;;;;5071478;28;20487;-58
2023/09/10 06:26:33;;;;;;;27.95;24.65;;;17.80;99.90;;;;;;5058525;28;20052;-57
2023/09/10 06:28:59;;;;;;;28.10;25.20;;;17.90;99.90;;;;;;5053296;28;20057;-57
2023/09/10 06:31:25;;;;;;;28.67;25.55;;;18.10;99.90;;;;;;5073975;28;20068;-57
2023/09/10 06:33:51;;;;;;;28.13;24.98;;;18.20;99.90;;;;;;5076254;28;20173;-58
2023/09/10 06:36:21;;;;;;;28.85;25.77;;;18.40;99.90;;;;;;5063837;28;20074;-57
2023/09/10 06:38:47;;;;;;;30.42;26.98;;;18.50;99.90;;;;;;5049799;28;20065;-57
2023/09/10 06:44:07;;;;;;;35.33;30.42;;;18.80;99.90;;;;;;5057056;28;20048;-57
2023/09/10 06:46:33;;;;;;;40.90;31.67;;;19.00;99.90;;;;;;5063571;28;20425;-56
2023/09/10 06:48:58;;;;;;;35.65;30.55;;;19.20;99.90;;;;;;5080615;28;20056;-57
2023/09/10 06:51:27;;;;;;;39.42;32.60;;;19.30;99.90;;;;;;5080293;28;20827;-57
2023/09/10 06:53:53;;;;;;;37.35;31.33;;;19.50;99.90;;;;;;5078723;28;20425;-57
2023/09/10 06:56:25;;;;;;;34.17;29.67;;;19.70;99.90;;;;;;5062033;28;20063;-57
2023/09/10 06:58:50;;;;;;;34.65;30.95;;;19.90;99.90;;;;;;5040090;28;20052;-57
2023/09/10 07:01:18;;;;;;;35.58;29.73;;;20.00;99.90;;;;;;5065504;28;20060;-58
2023/09/10 07:03:42;;;;;;;33.03;29.45;;;20.30;99.90;;;;;;5079380;28;20599;-57
2023/09/10 07:06:08;;;;;;;33.90;30.23;;;20.40;99.90;;;;;;5079901;28;20044;-57
2023/09/10 07:08:35;;;;;;;36.20;31.35;;;20.60;99.90;;;;;;5079494;28;20113;-57
2023/09/10 07:11:01;;;;;;;36.60;31.55;;;20.80;99.90;;;;;;5078741;28;20516;-57
2023/09/10 07:13:29;;;;;;;37.45;31.33;;;21.00;99.90;;;;;;5049113;28;20056;-57
2023/09/10 07:15:54;;;;;;;34.15;29.48;;;21.10;99.90;;;;;;5081794;28;20064;-57
2023/09/10 07:18:21;;;;;;;33.08;29.65;;;21.40;99.90;;;;;;5081971;28;20053;-57
2023/09/10 07:20:47;;;;;;;34.17;29.85;;;21.60;99.90;;;;;;5079216;28;20055;-57
2023/09/10 07:23:13;;;;;;;33.70;29.65;;;21.80;99.90;;;;;;5065336;28;20040;-58
2023/09/10 07:25:39;;;;;;;35.40;30.40;;;22.10;99.90;;;;;;5078326;28;20068;-57
2023/09/10 07:28:06;;;;;;;30.10;26.83;;;22.20;99.90;;;;;;5069815;28;20068;-57
2023/09/10 07:30:32;;;;;;;32.47;28.05;;;22.30;99.90;;;;;;5063636;28;20152;-57
2023/09/10 07:32:58;;;;;;;28.10;24.83;;;22.60;99.90;;;;;;5067609;28;20056;-57
2023/09/10 07:35:24;;;;;;;27.50;24.17;;;22.70;99.90;;;;;;5064097;28;20076;-58
2023/09/10 07:37:51;;;;;;;31.20;25.67;;;23.00;99.90;;;;;;5068283;28;20193;-59
2023/09/10 07:40:21;;;;;;;25.63;22.92;;;23.20;99.90;;;;;;5065618;28;20052;-58
2023/09/10 07:42:46;;;;;;;25.55;22.88;;;23.30;99.90;;;;;;5052845;28;20057;-58
2023/09/10 07:45:14;;;;;;;27.90;23.00;;;23.50;99.90;;;;;;5066150;28;20855;-58
2023/09/10 07:47:43;;;;;;;25.48;22.27;;;23.70;99.90;;;;;;5043151;28;20510;-58
2023/09/10 07:50:09;;;;;;;30.65;24.02;;;23.90;99.90;;;;;;5064399;28;20076;-57
2023/09/10 07:52:34;;;;;;;27.55;24.48;;;24.10;99.90;;;;;;5034823;28;20193;-57
2023/09/10 07:55:00;;;;;;;28.98;25.42;;;24.20;99.90;;;;;;5064462;28;20052;-57
2023/09/10 07:57:26;;;;;;;27.83;24.27;;;24.40;99.90;;;;;;5068909;28;20056;-57
2023/09/10 07:59:52;;;;;;;30.35;25.50;;;24.40;99.90;;;;;;5071810;28;20061;-58
2023/09/10 08:02:26;;;;;;;28.10;25.02;;;24.60;99.90;;;;;;5068896;28;20057;-58
2023/09/10 08:04:52;;;;;;;;;;;24.70;99.90;;;;;;5072914;28;20052;-58
2023/09/10 08:07:21;;;;;;;26.35;21.90;;;24.60;99.90;;;;;;5045159;28;19970;-63
2023/09/10 08:09:46;;;;;;;27.02;24.33;;;24.80;99.90;;;;;;5049033;28;20056;-60
2023/09/10 08:12:14;;;;;;;27.25;24.40;;;25.00;99.90;;;;;;5064664;28;20482;-62
2023/09/10 08:14:41;;;;;;;25.92;23.17;;;25.10;99.90;;;;;;5067851;28;20088;-63
2023/09/10 08:17:06;;;;;;;26.10;23.27;;;25.30;99.90;;;;;;5069839;28;20063;-61
2023/09/10 08:19:32;;;;;;;22.25;20.05;;;25.40;99.90;;;;;;5065884;28;20056;-63
2023/09/10 08:21:58;;;;;;;21.83;19.55;;;25.60;99.90;;;;;;5064499;28;20068;-61
2023/09/10 08:24:23;;;;;;;23.75;21.17;;;26.00;99.90;;;;;;5066121;28;21571;-60
2023/09/10 08:26:51;;;;;;;21.30;19.10;;;26.30;99.90;;;;;;5061566;28;21254;-59
2023/09/10 08:29:21;;;;;;;25.48;21.58;;;26.50;99.90;;;;;;5060949;28;20151;-59
2023/09/10 08:31:46;;;;;;;23.92;21.27;;;26.50;99.90;;;;;;5067873;28;20056;-59
2023/09/10 08:34:12;;;;;;;23.27;20.58;;;26.80;99.90;;;;;;5050164;28;20067;-58
2023/09/10 08:36:38;;;;;;;21.23;18.25;;;26.80;99.90;;;;;;5066196;28;20052;-57
2023/09/10 08:39:04;;;;;;;22.45;20.20;;;26.90;99.90;;;;;;5070838;28;20056;-57
2023/09/10 08:41:50;;;;;;;18.95;16.95;;;27.40;99.90;;;;;;5065459;28;20049;-58
2023/09/10 08:46:44;;;;;;;18.75;16.48;;;27.60;99.90;;;;;;5050706;28;20052;-58
2023/09/10 08:49:12;;;;;;;18.02;16.15;;;27.70;99.90;;;;;;5045740;28;20048;-57
2023/09/10 08:51:38;;;;;;;18.73;16.83;;;27.70;99.90;;;;;;5057270;28;20062;-62
2023/09/10 08:54:05;;;;;;;17.60;15.73;;;27.90;99.90;;;;;;5058171;28;20077;-59
2023/09/10 08:56:31;;;;;;;17.67;15.90;;;28.20;99.90;;;;;;5072357;28;20812;-62
2023/09/10 08:58:58;;;;;;;17.77;14.98;;;28.30;99.90;;;;;;5049822;28;20168;-61
2023/09/10 09:01:24;;;;;;;16.73;14.50;;;28.50;99.90;;;;;;5071846;28;20055;-62
2023/09/10 09:03:50;;;;;;;14.25;12.77;;;28.70;99.90;;;;;;5052283;28;20051;-64
2023/09/10 09:06:16;;;;;;;13.45;12.02;;;28.50;99.90;;;;;;5050655;28;20056;-61
2023/09/10 09:08:48;;;;;;;14.48;13.07;;;28.70;99.90;;;;;;5055415;28;20304;-64
2023/09/10 09:11:15;;;;;;;13.00;11.68;;;28.90;99.90;;;;;;5069512;28;20056;-62
2023/09/10 09:13:45;;;;;;;11.18;10.18;;;29.20;99.90;;;;;;5070388;28;20063;-65
2023/09/10 09:16:11;;;;;;;11.40;8.85;;;29.70;99.90;;;;;;5066664;28;20529;-63
2023/09/10 09:18:39;;;;;;;13.80;9.70;;;29.60;99.90;;;;;;5069126;28;20094;-57
2023/09/10 09:23:51;;;;;;;12.05;9.40;;;30.30;99.90;;;;;;5057979;28;20196;-59
2023/09/10 09:28:42;;;;;;;11.20;10.07;;;30.40;99.90;;;;;;5075312;28;21447;-58
2023/09/10 09:31:09;;;;;;;10.45;9.43;;;30.40;99.90;;;;;;5078833;28;20044;-58
2023/09/10 09:33:36;;;;;;;9.73;8.77;;;30.50;99.90;;;;;;5074030;28;20426;-58
2023/09/10 09:36:09;;;;;;;9.93;8.93;;;30.50;99.90;;;;;;5075795;28;20056;-58
2023/09/10 09:38:40;;;;;;;9.77;8.88;;;30.70;99.90;;;;;;5069714;28;20060;-58
2023/09/10 09:41:06;;;;;;;9.85;8.48;;;30.40;99.90;;;;;;5067130;28;20055;-59
2023/09/10 09:43:35;;;;;;;10.57;9.40;;;30.80;99.90;;;;;;5057398;28;20539;-62
2023/09/10 09:46:01;;;;;;;9.60;8.65;;;31.00;99.90;;;;;;5068974;28;20535;-64
2023/09/10 09:48:27;;;;;;;11.75;8.60;;;31.30;99.90;;;;;;5069000;28;20052;-61
2023/09/10 09:50:54;;;;;;;10.00;8.70;;;31.60;99.90;;;;;;5068749;28;20426;-60
2023/09/10 09:53:28;;;;;;;12.10;10.05;;;31.10;99.90;;;;;;5040119;28;20061;-59
2023/09/10 09:55:56;;;;;;;13.18;9.50;;;31.00;99.90;;;;;;5064381;28;20060;-60
2023/09/10 09:58:22;;;;;;;8.85;7.95;;;30.80;99.90;;;;;;5064088;28;20060;-57
2023/09/10 10:00:48;;;;;;;9.73;8.73;;;31.10;99.90;;;;;;5070339;28;20056;-59
2023/09/10 10:03:16;;;;;;;11.63;10.40;;;31.30;99.90;;;;;;5064236;28;20052;-59
2023/09/10 10:05:42;;;;;;;10.63;9.52;;;31.10;99.90;;;;;;5052800;28;20175;-60
2023/09/10 10:08:08;;;;;;;9.90;8.95;;;31.40;99.90;;;;;;5078539;28;20446;-62
2023/09/10 10:10:35;;;;;;;14.02;10.20;;;31.60;99.90;;;;;;5060838;28;20578;-62
2023/09/10 10:13:01;;;;;;;13.40;10.32;;;31.50;99.90;;;;;;5035276;28;1096456;-62
2023/09/10 10:15:27;;;;;;;13.65;10.93;;;31.40;99.90;;;;;;5052106;28;20067;-62
2023/09/10 10:17:54;;;;;;;14.05;10.38;;;31.40;99.90;;;;;;5067088;28;20063;-61
2023/09/10 10:20:21;;;;;;;11.05;9.98;;;31.70;99.90;;;;;;5069623;28;20056;-60
2023/09/10 10:22:48;;;;;;;13.05;11.02;;;31.60;99.90;;;;;;5066185;28;20101;-60
2023/09/10 10:25:14;;;;;;;11.25;9.27;;;31.40;99.90;;;;;;5071875;28;20044;-58
2023/09/10 10:27:43;;;;;;;10.52;9.40;;;31.30;99.90;;;;;;5066119;28;20064;-59
2023/09/10 10:30:10;;;;;;;11.52;10.30;;;31.70;99.90;;;;;;5068617;28;20512;-59
2023/09/10 10:32:40;;;;;;;10.98;9.45;;;31.70;99.90;;;;;;5059114;28;20803;-58
2023/09/10 10:35:09;;;;;;;10.07;9.00;;;31.30;99.90;;;;;;5047655;28;20044;-59
2023/09/10 10:37:56;;;;;;;11.52;9.82;;;32.00;99.90;;;;;;5064173;28;20460;-58
2023/09/10 10:40:28;;;;;;;10.07;9.05;;;32.00;99.90;;;;;;5068508;28;20139;-58
2023/09/10 10:43:01;;;;;;;9.20;8.30;;;31.90;99.90;;;;;;5068684;28;20117;-59
2023/09/10 10:45:29;;;;;;;9.13;6.60;;;31.80;99.90;;;;;;5050986;28;20070;-58
2023/09/10 10:47:59;;;;;;;8.77;7.88;;;32.40;99.90;;;;;;5068177;28;20460;-59
2023/09/10 10:50:27;;;;;;;20.85;8.18;;;32.00;99.90;;;;;;5062689;28;20079;-59
2023/09/10 10:53:04;;;;;;;10.38;7.68;;;32.40;99.90;;;;;;5058422;28;20063;-58
2023/09/10 10:55:32;;;;;;;7.50;6.47;;;32.30;99.90;;;;;;5058834;28;20056;-58
2023/09/10 10:57:59;;;;;;;8.68;7.88;;;32.20;99.90;;;;;;5045963;28;20059;-58
2023/09/10 11:00:26;;;;;;;8.60;7.68;;;32.30;99.90;;;;;;5062098;28;20078;-59
2023/09/10 11:03:14;;;;;;;8.15;7.22;;;31.70;99.90;;;;;;5069251;28;20056;-58
2023/09/10 11:06:04;;;;;;;8.27;7.53;;;32.40;99.90;;;;;;5081990;28;20056;-59
2023/09/10 11:08:35;;;;;;;7.43;6.65;;;32.40;99.90;;;;;;5049434;28;20512;-58
2023/09/10 11:11:05;;;;;;;8.68;7.85;;;32.60;99.90;;;;;;5067137;28;20097;-58
2023/09/10 11:13:32;;;;;;;10.25;8.38;;;32.90;99.90;;;;;;5062259;28;20167;-58
2023/09/10 11:16:04;;;;;;;8.35;7.65;;;33.10;99.90;;;;;;5050968;28;20092;-66
2023/09/10 11:18:35;;;;;;;9.07;7.13;;;33.10;99.90;;;;;;5070339;28;20051;-67
2023/09/10 11:21:03;;;;;;;7.25;6.55;;;33.40;99.90;;;;;;5058609;28;20064;-59
2023/09/10 11:23:29;;;;;;;8.25;7.22;;;34.30;99.90;;;;;;5073801;28;20052;-59
2023/09/10 11:26:21;;;;;;;6.97;6.28;;;35.90;99.90;;;;;;5077082;28;20055;-59
2023/09/10 11:28:54;;;;;;;7.82;7.00;;;37.30;99.90;;;;;;5080176;28;20564;-58
2023/09/10 11:31:33;;;;;;;9.40;6.82;;;38.70;99.90;;;;;;5071403;28;20057;-58
2023/09/10 11:34:24;;;;;;;9.25;7.78;;;38.70;98.90;;;;;;5025297;28;20060;-59
2023/09/10 11:36:51;;;;;;;9.32;8.43;;;39.50;97.60;;;;;;5067155;28;20616;-59
2023/09/10 11:39:21;;;;;;;8.77;7.50;;;38.40;97.60;;;;;;5073661;28;20071;-59
2023/09/10 11:41:49;;;;;;;11.18;6.53;;;38.50;97.60;;;;;;5067640;28;20094;-59
2023/09/10 11:44:15;;;;;;;9.20;6.50;;;38.90;97.30;;;;;;5074471;28;20059;-59
2023/09/10 11:46:41;;;;;;;8.20;6.97;;;38.40;97.20;;;;;;5080176;28;20051;-59
2023/09/10 11:49:07;;;;;;;8.60;5.75;;;38.20;97.50;;;;;;5073571;28;20048;-59
2023/09/10 11:51:40;;;;;;;6.95;6.35;;;37.50;98.10;;;;;;5067173;28;20066;-59
2023/09/10 11:54:06;;;;;;;7.43;6.50;;;36.80;98.50;;;;;;5067013;28;20052;-59
2023/09/10 11:56:33;;;;;;;6.85;6.25;;;36.20;99.00;;;;;;5061294;28;20060;-59
2023/09/10 11:59:00;;;;;;;8.57;6.68;;;35.90;99.10;;;;;;5050201;28;20170;-59
2023/09/10 12:01:25;;;;;;;7.60;5.32;;;35.60;99.50;;;;;;5070141;28;20157;-58
2023/09/10 12:03:51;;;;;;;8.85;6.22;;;35.70;99.50;;;;;;5076431;28;20795;-59
2023/09/10 12:06:17;;;;;;;6.43;5.82;;;35.40;99.70;;;;;;5072125;28;20082;-59
2023/09/10 12:08:44;;;;;;;10.93;6.82;;;35.10;99.90;;;;;;5067913;28;20060;-62
2023/09/10 12:11:11;;;;;;;8.18;6.40;;;34.90;99.90;;;;;;5072894;28;20056;-63
2023/09/10 12:13:39;;;;;;;5.97;5.43;;;34.70;99.90;;;;;;5071213;28;20067;-59
2023/09/10 12:16:06;;;;;;;6.45;5.82;;;34.70;99.90;;;;;;5071731;28;20056;-61
2023/09/10 12:18:33;;;;;;;9.07;6.28;;;35.00;99.90;;;;;;5070792;28;20056;-59
2023/09/10 12:20:59;;;;;;;6.40;5.70;;;34.80;99.90;;;;;;5052868;28;20137;-59
2023/09/10 12:23:26;;;;;;;8.18;5.93;;;35.00;99.90;;;;;;5051338;28;20063;-62
2023/09/10 12:26:02;;;;;;;8.20;5.35;;;34.80;99.90;;;;;;5060831;28;20053;-59
2023/09/10 12:28:31;;;;;;;7.13;5.90;;;35.40;99.90;;;;;;5067108;28;20063;-58
2023/09/10 12:30:57;;;;;;;7.03;5.95;;;35.40;99.90;;;;;;5068598;28;20047;-59
2023/09/10 12:33:23;;;;;;;8.80;5.88;;;35.60;99.90;;;;;;5068626;28;20060;-60
2023/09/10 12:35:50;;;;;;;10.85;6.28;;;35.10;99.90;;;;;;5069752;28;20060;-64
2023/09/10 12:38:17;;;;;;;6.18;5.47;;;35.50;99.90;;;;;;5070289;28;20064;-59
2023/09/10 12:40:44;;;;;;;9.07;5.80;;;35.50;99.80;;;;;;5069304;28;20819;-59
2023/09/10 12:43:10;;;;;;;10.63;5.95;;;35.50;99.90;;;;;;5059579;28;20053;-59
2023/09/10 12:45:36;;;;;;;11.57;6.05;;;35.60;99.90;;;;;;5068798;28;20533;-58